Time;durP1;ratioP1;P1;durP2;ratioP2;P2;SDS_P1;SDS_P2;PMS_P1;PMS_P2;Temp;Humidity;BMP_temperature;BMP_pressure;BME280_temperature;BME280_humidity;BME280_pressure;Samples;Min_cycle;Max_cycle;Signal;HPM_P1;HPM_P2
2020/12/23 00:01:17;;;;;;;1.70;1.20;;;20.30;60.30;;;;;;5058567;28;20501;-67
2020/12/23 00:03:43;;;;;;;1.47;1.03;;;20.30;60.10;;;;;;5035910;28;20480;-67
2020/12/23 00:06:09;;;;;;;1.33;1.17;;;20.30;59.90;;;;;;5031193;28;20493;-67
2020/12/23 00:08:35;;;;;;;4.93;1.70;;;20.30;59.70;;;;;;5041187;28;20470;-68
2020/12/23 00:11:01;;;;;;;2.17;1.00;;;20.40;59.60;;;;;;5049709;28;20495;-69
2020/12/23 00:13:28;;;;;;;6.73;1.53;;;20.40;59.40;;;;;;5041682;28;20494;-68
2020/12/23 00:15:55;;;;;;;1.40;1.10;;;20.40;59.20;;;;;;5037448;28;20474;-67
2020/12/23 00:18:21;;;;;;;1.10;0.90;;;20.40;59.50;;;;;;5046698;28;20489;-67
2020/12/23 00:20:47;;;;;;;0.90;0.90;;;20.40;59.50;;;;;;5068483;28;20477;-67
2020/12/23 00:23:13;;;;;;;2.20;1.30;;;20.30;59.20;;;;;;5055565;28;20481;-67
2020/12/23 00:25:39;;;;;;;1.00;0.87;;;20.30;59.50;;;;;;5071070;28;20484;-67
2020/12/23 00:28:05;;;;;;;1.10;1.10;;;20.30;59.30;;;;;;5062088;28;20481;-67
2020/12/23 00:30:31;;;;;;;1.40;1.10;;;20.30;59.50;;;;;;5050887;28;20489;-67
2020/12/23 00:32:58;;;;;;;2.63;1.63;;;20.30;59.50;;;;;;5061146;28;20475;-68
2020/12/23 00:35:25;;;;;;;1.70;0.60;;;20.30;59.60;;;;;;5031799;28;20497;-67
2020/12/23 00:37:51;;;;;;;1.30;1.13;;;20.30;59.50;;;;;;5047620;28;20523;-67
2020/12/23 00:40:17;;;;;;;3.47;0.90;;;20.30;59.40;;;;;;5060722;28;21091;-66
2020/12/23 00:42:43;;;;;;;1.30;1.20;;;20.30;59.60;;;;;;5043470;28;20939;-67
2020/12/23 00:45:09;;;;;;;0.80;0.80;;;20.30;59.60;;;;;;5064765;28;20496;-67
2020/12/23 00:47:35;;;;;;;3.07;1.10;;;20.30;59.50;;;;;;5050616;28;20484;-68
2020/12/23 00:50:02;;;;;;;2.43;1.00;;;20.20;59.50;;;;;;5070543;28;20485;-67
2020/12/23 00:52:28;;;;;;;1.47;1.00;;;20.20;59.10;;;;;;5060428;28;20492;-67
2020/12/23 00:54:55;;;;;;;0.97;0.97;;;20.20;59.30;;;;;;5057093;28;20545;-68
2020/12/23 00:57:21;;;;;;;0.83;0.83;;;20.20;59.80;;;;;;5064494;28;20499;-67
2020/12/23 00:59:47;;;;;;;1.33;1.03;;;20.20;59.70;;;;;;5048589;28;20481;-68
2020/12/23 01:02:13;;;;;;;1.20;1.00;;;20.30;59.60;;;;;;5072300;28;20492;-67
2020/12/23 01:04:39;;;;;;;1.37;1.27;;;20.30;59.50;;;;;;5059286;28;20492;-67
2020/12/23 01:07:06;;;;;;;0.80;0.80;;;20.30;59.30;;;;;;5063351;28;20542;-67
2020/12/23 01:09:32;;;;;;;0.70;0.70;;;20.40;58.90;;;;;;5046875;28;21099;-66
2020/12/23 01:11:59;;;;;;;1.07;0.87;;;20.40;58.90;;;;;;5038226;28;20499;-67
2020/12/23 01:14:25;;;;;;;0.90;0.90;;;20.40;59.20;;;;;;5037743;28;20482;-67
2020/12/23 01:16:51;;;;;;;1.57;1.17;;;20.40;59.00;;;;;;5052410;28;20521;-66
2020/12/23 01:19:17;;;;;;;2.20;0.87;;;20.30;58.80;;;;;;5053115;28;20489;-66
2020/12/23 01:21:43;;;;;;;2.60;1.30;;;20.30;58.70;;;;;;5029655;28;20490;-66
2020/12/23 01:24:10;;;;;;;3.37;1.23;;;20.40;59.10;;;;;;5048286;28;20485;-67
2020/12/23 01:26:37;;;;;;;1.27;0.90;;;20.30;58.90;;;;;;5038785;28;20507;-67
2020/12/23 01:29:03;;;;;;;1.13;1.03;;;20.40;58.80;;;;;;5044418;28;20470;-66
2020/12/23 01:31:29;;;;;;;1.37;0.77;;;20.40;58.60;;;;;;5043575;28;20545;-66
2020/12/23 01:33:55;;;;;;;0.70;0.70;;;20.50;58.50;;;;;;5070366;28;20485;-67
2020/12/23 01:36:21;;;;;;;1.90;1.13;;;20.50;58.40;;;;;;5060594;28;20550;-66
2020/12/23 01:38:47;;;;;;;0.90;0.90;;;20.50;58.30;;;;;;5037118;28;20507;-66
2020/12/23 01:41:14;;;;;;;1.10;1.00;;;20.50;58.30;;;;;;5043680;28;20473;-66
2020/12/23 01:43:41;;;;;;;1.47;0.73;;;20.50;58.40;;;;;;5063300;28;20492;-66
2020/12/23 01:46:07;;;;;;;1.23;1.00;;;20.50;58.40;;;;;;5063720;28;20516;-67
2020/12/23 01:48:34;;;;;;;2.20;1.20;;;20.40;58.30;;;;;;5023401;28;20486;-67
2020/12/23 01:51:01;;;;;;;1.67;0.93;;;20.50;58.30;;;;;;5019224;28;20482;-66
2020/12/23 01:53:27;;;;;;;1.93;1.00;;;20.50;58.30;;;;;;5035727;28;20914;-67
2020/12/23 01:55:53;;;;;;;1.00;0.90;;;20.50;58.20;;;;;;5056830;28;20474;-67
2020/12/23 01:58:20;;;;;;;1.57;1.00;;;20.50;58.10;;;;;;5046282;28;20490;-67
2020/12/23 02:00:46;;;;;;;0.93;0.73;;;20.50;58.10;;;;;;5033814;28;20516;-67
2020/12/23 02:03:13;;;;;;;1.47;0.90;;;20.50;58.00;;;;;;5027639;28;20478;-67
2020/12/23 02:05:39;;;;;;;0.90;0.90;;;20.50;58.20;;;;;;5035824;28;20510;-66
2020/12/23 02:08:05;;;;;;;1.07;0.90;;;20.50;58.20;;;;;;5030358;28;21122;-67
2020/12/23 02:10:32;;;;;;;1.20;1.10;;;20.50;58.00;;;;;;5046020;28;20494;-68
2020/12/23 02:12:58;;;;;;;1.03;0.93;;;20.50;58.20;;;;;;5039643;28;20493;-67
2020/12/23 02:15:25;;;;;;;2.80;0.93;;;20.50;58.20;;;;;;5037464;28;20482;-66
2020/12/23 02:17:52;;;;;;;0.67;0.67;;;20.40;57.90;;;;;;5050193;28;20486;-67
2020/12/23 02:20:18;;;;;;;1.70;0.93;;;20.50;58.00;;;;;;5029111;28;20470;-67
2020/12/23 02:22:46;;;;;;;2.10;0.80;;;20.40;58.00;;;;;;5039173;28;20470;-67
2020/12/23 02:25:13;;;;;;;1.03;1.03;;;20.40;58.10;;;;;;5050692;28;20481;-68
2020/12/23 02:27:40;;;;;;;1.27;0.83;;;20.40;58.20;;;;;;5033811;28;21315;-68
2020/12/23 02:30:07;;;;;;;2.83;1.03;;;20.40;58.30;;;;;;5046760;28;20473;-68
2020/12/23 02:32:33;;;;;;;0.70;0.70;;;20.40;58.20;;;;;;5034191;28;21061;-68
2020/12/23 02:34:59;;;;;;;1.13;1.00;;;20.40;58.10;;;;;;5037378;28;20478;-67
2020/12/23 02:37:25;;;;;;;1.20;0.70;;;20.40;57.70;;;;;;5050668;28;20513;-68
2020/12/23 02:39:53;;;;;;;1.50;0.80;;;20.40;57.80;;;;;;5047668;28;20479;-68
2020/12/23 02:42:20;;;;;;;1.03;0.80;;;20.50;57.90;;;;;;5031564;28;21048;-67
2020/12/23 02:44:47;;;;;;;1.20;1.20;;;20.50;57.90;;;;;;5033659;28;20598;-67
2020/12/23 02:47:15;;;;;;;0.87;0.87;;;20.50;57.90;;;;;;5053291;28;20482;-67
2020/12/23 02:49:41;;;;;;;3.47;0.87;;;20.50;58.00;;;;;;5038881;28;20511;-68
2020/12/23 02:52:07;;;;;;;1.03;0.70;;;20.40;57.80;;;;;;5043533;28;20492;-67
2020/12/23 02:54:33;;;;;;;0.90;0.90;;;20.50;57.50;;;;;;5051612;28;20504;-67
2020/12/23 02:57:00;;;;;;;1.63;1.47;;;20.40;57.80;;;;;;5037734;28;20483;-68
2020/12/23 02:59:26;;;;;;;1.70;1.10;;;20.40;57.80;;;;;;5053360;28;21532;-67
2020/12/23 03:01:53;;;;;;;1.00;1.00;;;20.40;57.80;;;;;;5068448;28;20551;-67
2020/12/23 03:04:19;;;;;;;1.20;1.10;;;20.40;57.80;;;;;;5056605;28;20534;-67
2020/12/23 03:06:45;;;;;;;1.13;1.03;;;20.40;57.90;;;;;;5067890;28;21589;-67
2020/12/23 03:09:12;;;;;;;3.10;0.90;;;20.40;57.80;;;;;;5068792;28;20892;-67
2020/12/23 03:11:38;;;;;;;1.30;1.20;;;20.40;57.80;;;;;;5071501;28;20538;-67
2020/12/23 03:14:06;;;;;;;0.73;0.70;;;20.30;57.80;;;;;;5056668;28;21269;-67
2020/12/23 03:16:32;;;;;;;1.17;0.70;;;20.30;57.80;;;;;;5036089;28;20481;-67
2020/12/23 03:18:58;;;;;;;1.10;1.00;;;20.30;57.80;;;;;;5066449;28;20484;-67
2020/12/23 03:21:24;;;;;;;2.10;0.93;;;20.30;57.90;;;;;;5071784;28;20473;-67
2020/12/23 03:23:51;;;;;;;2.63;0.77;;;20.30;57.90;;;;;;5056487;28;20575;-67
2020/12/23 03:26:17;;;;;;;1.50;0.80;;;20.30;58.00;;;;;;5058470;28;20489;-66
2020/12/23 03:28:43;;;;;;;2.40;1.00;;;20.30;58.10;;;;;;5067615;28;20499;-67
2020/12/23 03:31:10;;;;;;;1.87;1.17;;;20.30;58.00;;;;;;5055214;28;21237;-67
2020/12/23 03:33:36;;;;;;;0.70;0.63;;;20.30;57.90;;;;;;5056332;28;20497;-67
2020/12/23 03:36:02;;;;;;;1.20;0.90;;;20.40;57.80;;;;;;5046285;28;20542;-67
2020/12/23 03:38:28;;;;;;;1.67;0.70;;;20.40;57.60;;;;;;5056873;28;20559;-67
2020/12/23 03:40:55;;;;;;;2.03;1.30;;;20.40;57.70;;;;;;5066965;28;20481;-67
2020/12/23 03:43:21;;;;;;;1.13;0.83;;;20.40;57.80;;;;;;5045424;28;20494;-68
2020/12/23 03:45:47;;;;;;;0.83;0.73;;;20.40;57.70;;;;;;5068870;28;21107;-67
2020/12/23 03:48:14;;;;;;;1.73;0.87;;;20.30;57.70;;;;;;5067009;28;20477;-68
2020/12/23 03:50:41;;;;;;;0.87;0.70;;;20.30;57.60;;;;;;5040957;28;20480;-66
2020/12/23 03:53:07;;;;;;;1.00;0.90;;;20.30;57.70;;;;;;5043404;28;20542;-68
2020/12/23 03:55:33;;;;;;;1.03;0.80;;;20.30;57.50;;;;;;5065188;28;20489;-67
2020/12/23 03:57:59;;;;;;;2.10;1.00;;;20.30;57.60;;;;;;5050720;28;20489;-68
2020/12/23 04:00:25;;;;;;;1.90;0.60;;;20.30;57.60;;;;;;5021811;28;20495;-67
2020/12/23 04:02:51;;;;;;;1.77;1.37;;;20.30;57.60;;;;;;5035297;28;20481;-67
2020/12/23 04:05:18;;;;;;;1.90;1.20;;;20.30;57.40;;;;;;5065790;28;20485;-67
2020/12/23 04:07:44;;;;;;;1.20;0.97;;;20.30;57.80;;;;;;5070929;28;20489;-67
2020/12/23 04:10:11;;;;;;;1.33;1.20;;;20.30;57.90;;;;;;5064157;28;20940;-68
2020/12/23 04:12:37;;;;;;;3.73;1.40;;;20.30;57.90;;;;;;5044324;28;20518;-67
2020/12/23 04:15:04;;;;;;;1.00;0.90;;;20.30;57.90;;;;;;5068053;28;20485;-68
2020/12/23 04:17:30;;;;;;;0.93;0.93;;;20.40;57.70;;;;;;5059680;28;20490;-68
2020/12/23 04:19:56;;;;;;;1.47;1.37;;;20.40;57.70;;;;;;5080578;28;20477;-67
2020/12/23 04:22:23;;;;;;;3.27;0.80;;;20.50;57.40;;;;;;5059628;28;20501;-68
2020/12/23 04:24:50;;;;;;;2.53;0.90;;;20.60;57.30;;;;;;5072917;28;20870;-67
2020/12/23 04:27:16;;;;;;;1.43;1.10;;;20.60;57.30;;;;;;5072899;28;20480;-67
2020/12/23 04:29:42;;;;;;;1.13;1.10;;;20.60;57.30;;;;;;5071262;28;20472;-67
2020/12/23 04:32:08;;;;;;;0.80;0.80;;;20.60;57.30;;;;;;5064560;28;20565;-67
2020/12/23 04:34:34;;;;;;;5.93;1.10;;;20.60;57.20;;;;;;5053711;28;20528;-67
2020/12/23 04:37:00;;;;;;;0.77;0.77;;;20.60;57.10;;;;;;5050478;28;21483;-68
2020/12/23 04:39:27;;;;;;;1.03;0.93;;;20.60;57.10;;;;;;5041548;28;20490;-67
2020/12/23 04:41:53;;;;;;;1.30;1.03;;;20.60;57.10;;;;;;5026178;28;20552;-67
2020/12/23 04:44:19;;;;;;;0.80;0.80;;;20.60;57.20;;;;;;5028330;28;20486;-67
2020/12/23 04:46:46;;;;;;;0.90;0.90;;;20.60;57.10;;;;;;5014115;28;20477;-68
2020/12/23 04:49:12;;;;;;;0.90;0.90;;;20.60;57.10;;;;;;5044478;28;20494;-67
2020/12/23 04:51:39;;;;;;;1.70;0.80;;;20.60;57.10;;;;;;5032298;28;20473;-68
2020/12/23 04:54:06;;;;;;;0.93;0.70;;;20.60;57.30;;;;;;5043228;28;20482;-67
2020/12/23 04:56:33;;;;;;;1.17;0.70;;;20.60;57.10;;;;;;5052982;28;20477;-68
2020/12/23 04:59:00;;;;;;;0.87;0.87;;;20.60;57.10;;;;;;5042547;28;20485;-68
2020/12/23 05:01:26;;;;;;;1.33;1.33;;;20.50;57.10;;;;;;5038324;28;20470;-68
2020/12/23 05:03:53;;;;;;;1.93;1.00;;;20.60;57.00;;;;;;5050945;28;21556;-68
2020/12/23 05:06:19;;;;;;;1.10;1.00;;;20.50;57.10;;;;;;5031175;28;20547;-68
2020/12/23 05:08:45;;;;;;;0.90;0.90;;;20.50;57.00;;;;;;5039161;28;20493;-68
2020/12/23 05:11:11;;;;;;;1.30;1.20;;;20.50;57.20;;;;;;5051220;28;20477;-67
2020/12/23 05:13:39;;;;;;;0.73;0.73;;;20.50;57.30;;;;;;5050054;28;20535;-69
2020/12/23 05:16:06;;;;;;;0.70;0.70;;;20.50;57.40;;;;;;5060586;28;20496;-67
2020/12/23 05:18:32;;;;;;;0.93;0.93;;;20.50;57.20;;;;;;5039693;28;20954;-68
2020/12/23 05:20:58;;;;;;;1.17;1.07;;;20.50;57.30;;;;;;5059287;28;21011;-67
2020/12/23 05:23:24;;;;;;;0.90;0.90;;;20.50;57.20;;;;;;5066853;28;20546;-67
2020/12/23 05:25:50;;;;;;;0.97;0.97;;;20.50;57.10;;;;;;5070888;28;20481;-68
2020/12/23 05:28:17;;;;;;;1.40;1.03;;;20.60;57.00;;;;;;5075106;28;20494;-67
2020/12/23 05:30:44;;;;;;;0.90;0.90;;;20.60;56.80;;;;;;5070985;28;20481;-68
2020/12/23 05:33:10;;;;;;;0.70;0.70;;;20.70;56.80;;;;;;5069428;28;20475;-68
2020/12/23 05:35:37;;;;;;;0.80;0.80;;;20.70;56.70;;;;;;5050547;28;20495;-67
2020/12/23 05:38:03;;;;;;;0.63;0.63;;;20.70;56.70;;;;;;5058514;28;20512;-68
2020/12/23 05:40:29;;;;;;;0.70;0.70;;;20.70;56.90;;;;;;5078444;28;20474;-68
2020/12/23 05:42:56;;;;;;;0.73;0.70;;;20.70;56.80;;;;;;5067855;28;20483;-68
2020/12/23 05:45:22;;;;;;;1.00;0.70;;;20.70;56.70;;;;;;5061397;27;20580;-68
2020/12/23 05:47:52;;;;;;;0.63;0.63;;;20.70;56.60;;;;;;5033622;28;20859;-67
2020/12/23 05:50:18;;;;;;;0.80;0.80;;;20.70;56.70;;;;;;5049814;28;20474;-68
2020/12/23 05:52:46;;;;;;;0.80;0.80;;;20.70;56.50;;;;;;5052666;28;21007;-68
2020/12/23 05:55:16;;;;;;;2.20;0.90;;;20.70;56.40;;;;;;5049460;28;20490;-67
2020/12/23 05:57:42;;;;;;;0.80;0.80;;;20.80;56.50;;;;;;5022520;28;20637;-68
2020/12/23 06:00:08;;;;;;;0.80;0.80;;;20.70;56.30;;;;;;5017274;28;20490;-68
2020/12/23 06:02:37;;;;;;;0.77;0.77;;;20.70;56.30;;;;;;5038672;28;21839;-68
2020/12/23 06:05:04;;;;;;;1.10;1.10;;;20.70;56.60;;;;;;5013004;28;20487;-67
2020/12/23 06:07:31;;;;;;;0.70;0.70;;;20.70;56.60;;;;;;5049403;28;20543;-67
2020/12/23 06:09:58;;;;;;;0.87;0.87;;;20.70;56.50;;;;;;5056611;28;20510;-68
2020/12/23 06:12:24;;;;;;;0.73;0.73;;;20.70;56.50;;;;;;5034644;28;20506;-66
2020/12/23 06:14:52;;;;;;;0.80;0.80;;;20.70;56.40;;;;;;5037044;28;20476;-66
2020/12/23 06:17:20;;;;;;;1.23;0.77;;;20.70;56.30;;;;;;5038587;28;21294;-67
2020/12/23 06:19:47;;;;;;;0.70;0.70;;;20.70;56.30;;;;;;5042941;28;20863;-67
2020/12/23 06:22:15;;;;;;;0.67;0.67;;;20.70;56.20;;;;;;5049387;28;20486;-67
2020/12/23 06:24:41;;;;;;;1.40;1.40;;;20.80;56.00;;;;;;5037509;28;21113;-67
2020/12/23 06:27:09;;;;;;;0.80;0.80;;;20.80;56.20;;;;;;5050087;28;20694;-67
2020/12/23 06:29:35;;;;;;;1.20;1.10;;;20.80;55.80;;;;;;5049246;28;20474;-68
2020/12/23 06:32:03;;;;;;;1.03;0.90;;;20.80;55.80;;;;;;5047589;28;20482;-67
2020/12/23 06:34:30;;;;;;;1.03;1.03;;;20.80;55.80;;;;;;5042013;28;20535;-66
2020/12/23 06:36:57;;;;;;;0.73;0.73;;;20.70;56.10;;;;;;5050808;28;20489;-67
2020/12/23 06:39:29;;;;;;;0.83;0.83;;;20.70;56.20;;;;;;5038671;28;20880;-68
2020/12/23 06:42:11;;;;;;;0.83;0.83;;;20.70;56.00;;;;;;5048245;28;20489;-67
2020/12/23 06:44:58;;;;;;;0.60;0.60;;;20.70;56.10;;;;;;5035751;28;21429;-68
2020/12/23 06:47:24;;;;;;;1.13;0.80;;;20.70;56.30;;;;;;5038081;28;20473;-68
2020/12/23 06:49:51;;;;;;;0.70;0.70;;;20.70;56.20;;;;;;5039421;28;20466;-66
2020/12/23 06:52:40;;;;;;;1.70;0.90;;;20.70;56.00;;;;;;5049073;28;20480;-67
2020/12/23 06:55:07;;;;;;;0.50;0.50;;;20.60;55.70;;;;;;5051196;28;20474;-68
2020/12/23 06:57:50;;;;;;;0.80;0.80;;;20.60;56.20;;;;;;5049764;28;21035;-67
2020/12/23 07:00:34;;;;;;;0.70;0.70;;;20.60;56.10;;;;;;5031739;28;20482;-68
2020/12/23 07:03:00;;;;;;;0.70;0.70;;;20.60;56.30;;;;;;5053832;28;21308;-67
2020/12/23 07:05:50;;;;;;;0.80;0.80;;;20.60;56.10;;;;;;5059435;28;20482;-67
2020/12/23 07:08:17;;;;;;;0.60;0.60;;;20.60;56.30;;;;;;5051938;28;20487;-68
2020/12/23 07:10:46;;;;;;;0.60;0.60;;;20.70;55.90;;;;;;5068413;28;20492;-69
2020/12/23 07:13:14;;;;;;;0.60;0.60;;;20.70;55.80;;;;;;5029401;28;20580;-68
2020/12/23 07:15:41;;;;;;;0.70;0.70;;;20.70;55.80;;;;;;5067865;28;20484;-66
2020/12/23 07:18:08;;;;;;;0.70;0.70;;;20.70;55.70;;;;;;5032022;28;20986;-68
2020/12/23 07:20:37;;;;;;;0.80;0.80;;;20.70;55.70;;;;;;5052072;28;20477;-67
2020/12/23 07:23:08;;;;;;;0.60;0.60;;;20.80;55.80;;;;;;5027580;28;20497;-68
2020/12/23 07:25:39;;;;;;;0.57;0.57;;;20.80;55.90;;;;;;5038625;28;20480;-67
2020/12/23 07:28:07;;;;;;;0.80;0.80;;;20.80;55.80;;;;;;5049631;28;20850;-67
2020/12/23 07:30:38;;;;;;;0.77;0.77;;;20.80;55.80;;;;;;5039980;28;20480;-67
2020/12/23 07:33:09;;;;;;;1.07;1.07;;;20.80;55.80;;;;;;5050850;28;20601;-68
2020/12/23 07:35:35;;;;;;;0.50;0.50;;;20.80;55.80;;;;;;5045644;28;20506;-68
2020/12/23 07:38:02;;;;;;;0.80;0.80;;;20.70;55.70;;;;;;5039279;28;20477;-67
2020/12/23 07:40:28;;;;;;;0.77;0.77;;;20.70;55.80;;;;;;5050302;28;20478;-67
2020/12/23 07:42:56;;;;;;;0.60;0.60;;;20.70;55.70;;;;;;5048432;28;20506;-67
2020/12/23 07:45:23;;;;;;;0.80;0.80;;;20.60;55.70;;;;;;5037878;28;20493;-67
2020/12/23 07:47:53;;;;;;;0.93;0.93;;;20.60;55.70;;;;;;5048440;28;20501;-66
2020/12/23 07:50:19;;;;;;;0.50;0.50;;;20.60;55.80;;;;;;5038338;28;20580;-68
2020/12/23 07:52:46;;;;;;;0.63;0.63;;;20.60;56.00;;;;;;5036812;28;20503;-67
2020/12/23 07:55:12;;;;;;;0.70;0.70;;;20.60;56.00;;;;;;5046523;28;21009;-68
2020/12/23 07:57:38;;;;;;;0.67;0.67;;;20.50;55.70;;;;;;5047297;28;21096;-68
2020/12/23 08:00:05;;;;;;;0.50;0.50;;;20.50;55.60;;;;;;5046883;28;20952;-67
2020/12/23 08:02:32;;;;;;;0.90;0.90;;;20.60;55.70;;;;;;5006232;28;20507;-67
2020/12/23 08:04:58;;;;;;;0.50;0.50;;;20.50;55.70;;;;;;5031359;28;20501;-68
2020/12/23 08:07:24;;;;;;;0.90;0.60;;;20.50;55.60;;;;;;5010395;28;20490;-65
2020/12/23 08:09:50;;;;;;;0.70;0.70;;;20.60;55.70;;;;;;5050026;28;21974;-67
2020/12/23 08:12:17;;;;;;;0.60;0.60;;;20.60;55.70;;;;;;5042881;28;20488;-67
2020/12/23 08:14:44;;;;;;;0.60;0.60;;;20.60;55.70;;;;;;4990267;28;21272;-68
2020/12/23 08:17:10;;;;;;;0.70;0.70;;;20.60;55.70;;;;;;5008139;28;20479;-67
2020/12/23 08:19:37;;;;;;;0.60;0.60;;;20.60;55.70;;;;;;5051215;28;20481;-67
2020/12/23 08:22:10;;;;;;;0.60;0.60;;;20.60;55.70;;;;;;5039707;28;20481;-67
2020/12/23 08:24:36;;;;;;;0.53;0.53;;;20.50;55.60;;;;;;5024472;28;20505;-68
2020/12/23 08:27:03;;;;;;;0.93;0.93;;;20.50;55.60;;;;;;5051402;28;20524;-67
2020/12/23 08:29:29;;;;;;;0.50;0.50;;;20.50;56.30;;;;;;5033609;28;20494;-67
2020/12/23 08:31:55;;;;;;;0.60;0.60;;;20.50;55.60;;;;;;5027120;28;20474;-68
2020/12/23 08:34:22;;;;;;;1.00;1.00;;;20.50;55.60;;;;;;5020788;28;20475;-67
2020/12/23 08:36:52;;;;;;;0.63;0.63;;;20.50;55.60;;;;;;5048226;28;20874;-67
2020/12/23 08:39:22;;;;;;;0.80;0.80;;;20.50;55.60;;;;;;5031390;28;20480;-67
2020/12/23 08:41:49;;;;;;;1.10;0.97;;;20.50;55.60;;;;;;5030821;28;20513;-67
2020/12/23 08:44:22;;;;;;;0.83;0.83;;;20.50;55.60;;;;;;5036652;28;20510;-67
2020/12/23 08:46:48;;;;;;;0.77;0.77;;;20.50;55.60;;;;;;5035333;28;20860;-67
2020/12/23 08:49:14;;;;;;;0.97;0.97;;;20.50;55.90;;;;;;5039764;28;20508;-67
2020/12/23 08:51:41;;;;;;;0.80;0.80;;;20.50;55.80;;;;;;5051786;28;20470;-65
2020/12/23 08:54:17;;;;;;;1.10;1.07;;;20.50;55.50;;;;;;5050286;28;21395;-67
2020/12/23 08:56:47;;;;;;;0.83;0.83;;;20.50;55.70;;;;;;5035318;28;20473;-69
2020/12/23 08:59:14;;;;;;;1.10;1.10;;;20.50;55.60;;;;;;5006967;28;20482;-68
2020/12/23 09:01:40;;;;;;;0.90;0.90;;;20.50;56.00;;;;;;5045583;28;20616;-68
2020/12/23 09:04:07;;;;;;;0.97;0.97;;;20.50;55.70;;;;;;5047409;28;20490;-68
2020/12/23 09:06:34;;;;;;;1.03;0.93;;;20.50;55.60;;;;;;5032776;28;20493;-67
2020/12/23 09:09:10;;;;;;;0.90;0.90;;;20.50;55.60;;;;;;5034687;28;20482;-68
2020/12/23 09:11:46;;;;;;;1.63;0.87;;;20.50;55.60;;;;;;5050050;28;20482;-68
2020/12/23 09:14:17;;;;;;;1.27;1.17;;;20.50;55.60;;;;;;5054613;28;20514;-67
2020/12/23 09:17:05;;;;;;;0.87;0.87;;;20.60;55.70;;;;;;5068040;28;20476;-67
2020/12/23 09:19:55;;;;;;;1.23;1.13;;;20.60;55.70;;;;;;5042356;28;20494;-67
2020/12/23 09:22:24;;;;;;;1.20;1.10;;;20.50;55.60;;;;;;5009035;28;20486;-67
2020/12/23 09:24:50;;;;;;;1.37;1.27;;;20.50;55.60;;;;;;5074282;28;20476;-67
2020/12/23 09:27:22;;;;;;;1.50;1.30;;;20.50;55.60;;;;;;5068308;28;20497;-67
2020/12/23 09:29:48;;;;;;;1.57;1.50;;;20.50;55.60;;;;;;5064929;28;20519;-67
2020/12/23 09:32:14;;;;;;;1.80;1.70;;;20.50;55.60;;;;;;5051997;28;20494;-68
2020/12/23 09:34:40;;;;;;;1.50;1.40;;;20.50;55.60;;;;;;5051251;28;20474;-67
2020/12/23 09:37:07;;;;;;;1.80;1.70;;;20.50;55.60;;;;;;5042828;28;20491;-68
2020/12/23 09:39:35;;;;;;;1.87;1.73;;;20.50;55.60;;;;;;5046430;28;20505;-67
2020/12/23 09:42:01;;;;;;;1.97;1.87;;;20.50;55.60;;;;;;5055006;28;20662;-68
2020/12/23 09:44:28;;;;;;;2.10;2.00;;;20.50;55.60;;;;;;5031314;28;20487;-67
2020/12/23 09:46:54;;;;;;;1.97;1.87;;;20.50;55.60;;;;;;5042740;28;20483;-66
2020/12/23 09:49:20;;;;;;;2.07;1.93;;;20.60;55.60;;;;;;5030131;28;21017;-67
2020/12/23 09:51:47;;;;;;;1.80;1.70;;;20.60;55.70;;;;;;5021406;28;21139;-68
2020/12/23 09:54:13;;;;;;;2.03;1.93;;;20.60;55.70;;;;;;5039036;28;20539;-67
2020/12/23 09:56:47;;;;;;;1.83;1.73;;;20.50;55.60;;;;;;5049490;28;20497;-67
2020/12/23 09:59:13;;;;;;;2.43;2.27;;;20.50;55.60;;;;;;5027438;28;20923;-69
2020/12/23 10:01:40;;;;;;;1.80;1.70;;;20.60;55.70;;;;;;5012686;28;21150;-67
2020/12/23 10:04:06;;;;;;;1.70;1.60;;;20.60;55.70;;;;;;5024415;28;20547;-67
2020/12/23 10:06:32;;;;;;;1.97;1.87;;;20.50;55.60;;;;;;5048049;28;20491;-68
2020/12/23 10:08:58;;;;;;;2.23;2.00;;;20.50;55.60;;;;;;5040568;28;20532;-68
2020/12/23 10:11:24;;;;;;;1.80;1.70;;;20.50;55.60;;;;;;5036405;28;20934;-67
2020/12/23 10:13:50;;;;;;;2.50;2.30;;;20.50;55.60;;;;;;5015250;28;20494;-67
2020/12/23 10:16:17;;;;;;;2.83;1.87;;;20.50;55.60;;;;;;5047634;28;20486;-68
2020/12/23 10:18:44;;;;;;;1.90;1.80;;;20.50;55.60;;;;;;5018256;28;20474;-67
2020/12/23 10:21:10;;;;;;;2.37;2.27;;;20.50;55.60;;;;;;5049863;28;20483;-67
2020/12/23 10:23:36;;;;;;;1.80;1.70;;;20.50;55.60;;;;;;5046761;28;20479;-67
2020/12/23 10:26:02;;;;;;;1.83;1.73;;;20.50;55.60;;;;;;5034697;28;20478;-67
2020/12/23 10:28:28;;;;;;;1.87;1.77;;;20.50;55.60;;;;;;5031216;28;20481;-67
2020/12/23 10:30:55;;;;;;;2.40;2.30;;;20.50;55.60;;;;;;5042227;28;20491;-67
2020/12/23 10:33:21;;;;;;;2.50;2.30;;;20.50;55.60;;;;;;5036428;28;20488;-67
2020/12/23 10:35:48;;;;;;;3.57;2.53;;;20.50;55.60;;;;;;5039013;28;21028;-67
2020/12/23 10:38:14;;;;;;;1.50;1.47;;;20.60;55.70;;;;;;5050815;28;20494;-67
2020/12/23 10:40:40;;;;;;;2.57;2.37;;;20.60;55.70;;;;;;5029181;28;20481;-67
2020/12/23 10:43:06;;;;;;;1.90;1.80;;;20.50;55.60;;;;;;5044730;28;21448;-68
2020/12/23 10:45:33;;;;;;;2.97;2.73;;;20.50;55.60;;;;;;5047932;28;20511;-67
2020/12/23 10:47:59;;;;;;;2.97;2.77;;;20.60;55.70;;;;;;5039171;28;20474;-67
2020/12/23 10:50:25;;;;;;;2.17;2.07;;;20.50;55.50;;;;;;5024202;28;20488;-67
2020/12/23 10:52:52;;;;;;;2.20;2.10;;;20.50;55.60;;;;;;5025999;28;20486;-67
2020/12/23 10:55:18;;;;;;;1.77;1.67;;;20.50;55.60;;;;;;5035923;28;20506;-67
2020/12/23 10:57:44;;;;;;;2.30;2.20;;;20.50;55.60;;;;;;5039332;28;20521;-66
2020/12/23 11:00:10;;;;;;;2.27;2.13;;;20.50;55.60;;;;;;5026683;28;20498;-67
2020/12/23 11:02:36;;;;;;;2.50;2.40;;;20.50;55.60;;;;;;5025167;28;20495;-67
2020/12/23 11:05:03;;;;;;;2.10;2.00;;;20.50;55.60;;;;;;5044580;28;20486;-67
2020/12/23 11:07:29;;;;;;;2.73;2.57;;;20.50;55.60;;;;;;5039534;28;20483;-67
2020/12/23 11:09:56;;;;;;;2.33;2.23;;;20.50;55.60;;;;;;5025478;28;21350;-67
2020/12/23 11:12:22;;;;;;;2.40;2.30;;;20.60;55.70;;;;;;5041032;28;20482;-67
2020/12/23 11:14:49;;;;;;;2.17;1.97;;;20.50;55.60;;;;;;5036442;28;20897;-68
2020/12/23 11:17:17;;;;;;;2.53;2.33;;;20.50;55.60;;;;;;5006011;28;20556;-67
2020/12/23 11:19:43;;;;;;;2.33;2.23;;;20.50;55.60;;;;;;5032136;28;20609;-67
2020/12/23 11:22:09;;;;;;;4.80;2.30;;;20.50;55.60;;;;;;5045187;28;20469;-67
2020/12/23 11:24:35;;;;;;;3.40;2.50;;;20.50;55.60;;;;;;5044279;28;20476;-68
2020/12/23 11:27:02;;;;;;;1.93;1.83;;;20.50;55.60;;;;;;5053769;28;21098;-68
2020/12/23 11:29:28;;;;;;;1.90;1.80;;;20.50;55.60;;;;;;5062232;28;20484;-67
2020/12/23 11:31:54;;;;;;;3.23;2.50;;;20.50;55.60;;;;;;5048352;28;20582;-68
2020/12/23 11:34:21;;;;;;;2.70;2.50;;;20.60;55.70;;;;;;5073230;28;21384;-67
2020/12/23 11:36:47;;;;;;;2.30;2.20;;;20.60;55.70;;;;;;5058804;28;20503;-67
2020/12/23 11:39:13;;;;;;;2.20;2.03;;;20.50;55.60;;;;;;5071179;28;20477;-68
2020/12/23 11:41:39;;;;;;;2.20;2.10;;;20.50;55.60;;;;;;5061256;28;21007;-67
2020/12/23 11:44:06;;;;;;;3.03;2.83;;;20.50;55.60;;;;;;5072194;28;21051;-68
2020/12/23 11:46:32;;;;;;;2.37;2.20;;;20.50;55.60;;;;;;5061881;28;20571;-67
2020/12/23 11:48:58;;;;;;;2.87;2.60;;;20.50;55.60;;;;;;5064888;28;20487;-68
2020/12/23 11:51:25;;;;;;;2.73;2.53;;;20.50;55.60;;;;;;5057270;28;20530;-67
2020/12/23 11:53:51;;;;;;;2.70;2.50;;;20.60;55.70;;;;;;5049823;28;20522;-68
2020/12/23 11:56:18;;;;;;;4.90;3.27;;;20.60;55.70;;;;;;5077181;28;21603;-67
2020/12/23 11:58:44;;;;;;;2.33;2.23;;;20.50;55.60;;;;;;5069287;28;20529;-67
2020/12/23 12:01:11;;;;;;;1.70;1.60;;;20.50;55.60;;;;;;5073937;28;20499;-67
2020/12/23 12:03:37;;;;;;;2.80;2.50;;;20.50;55.60;;;;;;5072515;28;21003;-68
2020/12/23 12:06:03;;;;;;;3.20;2.93;;;20.50;55.60;;;;;;5073956;28;20840;-68
2020/12/23 12:08:30;;;;;;;2.90;2.70;;;20.50;55.60;;;;;;5076819;28;21044;-67
2020/12/23 12:10:56;;;;;;;2.10;2.00;;;20.50;55.60;;;;;;5059086;28;20537;-67
2020/12/23 12:13:23;;;;;;;4.53;2.27;;;20.50;55.60;;;;;;5058424;28;20497;-67
2020/12/23 12:15:49;;;;;;;2.50;2.40;;;20.50;55.60;;;;;;5061082;28;20487;-67
2020/12/23 12:18:16;;;;;;;3.50;2.80;;;20.50;55.60;;;;;;5070012;28;21267;-67
2020/12/23 12:20:42;;;;;;;2.43;2.33;;;20.50;55.60;;;;;;5084387;28;20951;-66
2020/12/23 12:23:08;;;;;;;3.13;2.93;;;20.50;55.60;;;;;;5065853;28;20477;-67
2020/12/23 12:25:34;;;;;;;2.20;2.10;;;20.50;55.60;;;;;;5065635;28;20471;-67
2020/12/23 12:28:02;;;;;;;2.53;2.33;;;20.50;55.60;;;;;;5073339;28;20481;-66
2020/12/23 12:30:28;;;;;;;6.63;2.90;;;20.50;55.60;;;;;;5076234;28;20518;-68
2020/12/23 12:32:54;;;;;;;2.30;2.10;;;20.50;56.30;;;;;;5065504;28;20484;-67
2020/12/23 12:35:21;;;;;;;2.37;2.20;;;20.50;55.60;;;;;;5056406;28;20493;-68
2020/12/23 12:37:47;;;;;;;2.47;2.37;;;20.50;55.60;;;;;;5069214;28;20580;-67
2020/12/23 12:40:13;;;;;;;2.07;1.97;;;20.50;55.60;;;;;;5072854;28;20543;-68
2020/12/23 12:42:39;;;;;;;3.00;2.80;;;20.50;55.60;;;;;;5074445;28;20542;-68
2020/12/23 12:45:06;;;;;;;2.47;2.30;;;20.40;55.80;;;;;;5072380;28;20484;-69
2020/12/23 12:47:32;;;;;;;2.43;2.23;;;20.40;55.80;;;;;;5054808;28;20562;-68